Time;durP1;ratioP1;P1;durP2;ratioP2;P2;SDS_P1;SDS_P2;PMS_P1;PMS_P2;Temp;Humidity;BMP_temperature;BMP_pressure;BME280_temperature;BME280_humidity;BME280_pressure;Samples;Min_cycle;Max_cycle;Signal;HPM_P1;HPM_P2
2022/10/19 00:02:04;;;;;;;4.90;3.20;;;;;;;16.91;63.96;102014.84;5130798;27;20426;-84
2022/10/19 00:04:30;;;;;;;4.03;3.17;;;;;;;16.84;64.16;101997.81;5133088;27;20480;-84
2022/10/19 00:06:55;;;;;;;3.25;2.92;;;;;;;17.03;64.02;102027.75;5134263;27;20035;-84
2022/10/19 00:09:21;;;;;;;4.80;3.30;;;;;;;16.94;63.89;102001.81;5120515;27;20024;-84
2022/10/19 00:11:48;;;;;;;4.25;2.78;;;;;;;17.06;63.94;102020.00;5134940;27;20027;-85
2022/10/19 00:14:17;;;;;;;4.65;3.60;;;;;;;17.05;63.65;102015.53;5134264;27;20030;-85
2022/10/19 00:16:44;;;;;;;4.28;3.00;;;;;;;16.98;64.02;102014.34;5114284;27;20047;-84
2022/10/19 00:19:24;;;;;;;4.63;3.10;;;;;;;16.99;63.82;102005.56;5124892;27;20034;-85
2022/10/19 00:21:50;;;;;;;4.18;2.80;;;;;;;16.95;64.01;101995.69;5133546;27;20473;-85
2022/10/19 00:24:16;;;;;;;3.80;3.03;;;;;;;16.97;64.07;102009.88;5135240;27;20027;-85
2022/10/19 00:26:42;;;;;;;4.80;3.08;;;;;;;16.98;63.98;102008.16;5130327;27;20031;-85
2022/10/19 00:29:10;;;;;;;5.20;3.20;;;;;;;16.99;63.93;102002.03;5122797;27;20506;-85
2022/10/19 00:31:35;;;;;;;3.80;3.35;;;;;;;16.98;63.75;101993.22;5133456;27;20023;-85
2022/10/19 00:34:01;;;;;;;3.15;2.80;;;;;;;16.79;63.87;101958.84;5120053;27;20015;-85
2022/10/19 00:36:30;;;;;;;3.97;3.30;;;;;;;16.95;63.94;101986.88;5134722;27;20035;-85
2022/10/19 00:38:56;;;;;;;4.93;3.20;;;;;;;16.88;63.68;101973.41;5134871;27;20026;-84
2022/10/19 00:41:22;;;;;;;;;;;;;;;17.00;63.74;101980.09;5124022;27;20035;-85
2022/10/19 00:44:06;;;;;;;5.00;3.13;;;;;;;16.94;63.64;101983.34;5127443;27;20476;-85
2022/10/19 00:46:37;;;;;;;5.95;3.60;;;;;;;16.96;63.68;101973.78;5134441;27;20020;-85
2022/10/19 00:49:13;;;;;;;3.75;3.00;;;;;;;16.92;63.87;101979.72;5118149;27;20073;-85
2022/10/19 00:51:41;;;;;;;4.28;3.13;;;;;;;16.96;63.65;101964.97;5121266;27;20043;-85
2022/10/19 00:54:07;;;;;;;4.07;3.08;;;;;;;16.80;63.65;101939.53;5132938;27;20027;-85
2022/10/19 00:56:33;;;;;;;;;;;;;;;16.99;63.71;101962.44;5133459;27;20480;-85
2022/10/19 00:59:02;;;;;;;3.70;2.75;;;;;;;16.93;63.79;101962.16;5115743;27;19927;-85
2022/10/19 01:01:28;;;;;;;5.25;2.90;;;;;;;16.75;63.57;101931.41;5131319;27;20030;-85
2022/10/19 01:03:53;;;;;;;3.63;3.13;;;;;;;16.93;63.74;101949.84;5121875;27;20036;-85
2022/10/19 01:06:19;;;;;;;4.22;2.90;;;;;;;16.81;64.00;101930.84;5131098;27;20039;-85
2022/10/19 01:08:45;;;;;;;6.30;3.00;;;;;;;16.78;63.76;101925.38;5133043;27;20464;-85
2022/10/19 01:11:22;;;;;;;3.55;2.70;;;;;;;16.97;63.73;101943.00;5117946;27;20028;-84
2022/10/19 01:14:15;;;;;;;3.45;2.80;;;;;;;16.94;63.72;101938.50;5122531;27;20027;-85
2022/10/19 01:16:59;;;;;;;4.38;2.90;;;;;;;16.95;63.64;101935.00;5126235;27;20492;-85
2022/10/19 01:20:04;;;;;;;5.55;3.15;;;;;;;16.88;63.93;101932.94;5127083;27;20023;-85
2022/10/19 01:22:48;;;;;;;4.68;3.08;;;;;;;16.93;63.66;101928.75;5111410;28;20092;-85
2022/10/19 01:25:36;;;;;;;4.38;3.08;;;;;;;16.88;63.89;101920.63;5127562;27;20116;-85
2022/10/19 01:28:14;;;;;;;4.00;2.55;;;;;;;16.90;63.74;101920.72;5127011;27;20051;-85
2022/10/19 01:31:00;;;;;;;3.03;2.72;;;;;;;16.93;63.92;101919.94;5129483;27;20027;-85
2022/10/19 01:33:36;;;;;;;6.43;3.15;;;;;;;16.84;63.50;101904.59;5113462;27;20545;-85
2022/10/19 01:36:59;;;;;;;4.10;2.90;;;;;;;16.92;63.49;101911.13;5127352;27;20062;-85
2022/10/19 01:39:37;;;;;;;3.40;2.85;;;;;;;16.87;63.84;101912.66;5066549;28;20377;-86
2022/10/19 01:42:05;;;;;;;3.92;3.20;;;;;;;16.87;63.88;101920.59;5069920;28;20111;-85
2022/10/19 01:44:37;;;;;;;5.20;3.20;;;;;;;16.82;63.80;101901.88;5109446;27;20042;-84
2022/10/19 01:47:09;;;;;;;2.80;2.53;;;;;;;16.83;63.82;101906.34;5121276;27;20097;-85
2022/10/19 01:49:42;;;;;;;3.92;2.80;;;;;;;16.77;63.85;101895.47;5132206;27;20533;-85
2022/10/19 01:52:10;;;;;;;3.92;2.95;;;;;;;16.88;63.68;101903.91;5131378;27;20053;-85
2022/10/19 01:54:41;;;;;;;4.22;2.92;;;;;;;16.79;63.73;101895.53;5127151;27;20019;-85
2022/10/19 01:57:08;;;;;;;4.15;2.97;;;;;;;16.83;63.53;101890.50;5118265;27;20381;-85
2022/10/19 01:59:35;;;;;;;4.55;2.80;;;;;;;16.80;63.34;101889.41;5124721;27;20080;-85
2022/10/19 02:02:02;;;;;;;5.03;2.97;;;;;;;16.93;63.42;101904.09;5111354;28;20055;-85
2022/10/19 02:04:29;;;;;;;5.30;2.85;;;;;;;16.76;63.67;101876.91;5130554;27;20027;-85
2022/10/19 02:06:54;;;;;;;3.33;2.80;;;;;;;16.86;63.66;101895.91;5131342;27;20088;-85
2022/10/19 02:09:20;;;;;;;3.60;3.03;;;;;;;16.83;63.68;101898.41;5128169;27;20015;-85
2022/10/19 02:11:48;;;;;;;3.40;2.72;;;;;;;16.80;63.65;101889.41;5112192;27;20034;-85
2022/10/19 02:14:16;;;;;;;3.88;2.92;;;;;;;16.81;63.80;101883.34;5124711;27;20027;-85
2022/10/19 02:16:48;;;;;;;3.78;2.85;;;;;;;16.78;63.86;101886.69;5111194;28;20020;-85
2022/10/19 02:19:15;;;;;;;4.18;2.92;;;;;;;16.71;63.73;101860.88;5123440;27;20046;-85
2022/10/19 02:21:40;;;;;;;;;;;;;;;16.81;63.80;101884.25;5123572;27;20026;-83
2022/10/19 02:24:06;;;;;;;3.40;2.83;;;;;;;16.65;63.83;101868.50;5129126;27;19915;-84
2022/10/19 02:26:32;;;;;;;3.90;2.90;;;;;;;16.56;63.70;101829.41;5119654;27;20026;-84
2022/10/19 02:28:57;;;;;;;4.78;2.90;;;;;;;16.45;63.75;101815.75;5131644;27;20404;-85
2022/10/19 02:31:24;;;;;;;4.70;2.90;;;;;;;16.73;63.86;101872.41;5129304;27;20115;-85
2022/10/19 02:33:49;;;;;;;3.65;2.50;;;;;;;16.76;63.76;101864.63;5130868;27;20035;-85
2022/10/19 02:36:16;;;;;;;4.05;2.65;;;;;;;16.79;63.69;101855.97;5113949;27;20034;-85
2022/10/19 02:38:42;;;;;;;6.50;3.10;;;;;;;16.63;63.55;101834.13;5126731;27;20020;-85
2022/10/19 02:41:19;;;;;;;3.35;2.85;;;;;;;16.78;63.55;101857.69;5123947;27;20031;-85
2022/10/19 02:43:48;;;;;;;3.88;2.90;;;;;;;16.75;63.68;101865.47;5132314;27;20023;-85
2022/10/19 02:46:44;;;;;;;3.13;2.83;;;;;;;16.77;63.69;101863.78;5130879;27;20400;-85
2022/10/19 02:49:10;;;;;;;4.65;2.85;;;;;;;16.63;63.77;101847.31;5113361;27;20035;-85
2022/10/19 02:52:00;;;;;;;4.95;2.88;;;;;;;16.76;63.64;101866.34;5126921;27;20031;-85
2022/10/19 02:54:27;;;;;;;4.60;2.90;;;;;;;16.65;63.58;101850.03;5122976;27;20027;-84
2022/10/19 02:56:53;;;;;;;4.40;2.85;;;;;;;16.60;63.77;101849.81;5132516;27;20029;-85
2022/10/19 02:59:19;;;;;;;4.25;3.05;;;;;;;16.54;63.45;101831.06;5134119;27;20043;-85
2022/10/19 03:01:45;;;;;;;3.42;2.72;;;;;;;16.73;63.66;101867.13;5134481;27;20027;-85
2022/10/19 03:04:11;;;;;;;3.60;2.70;;;;;;;16.64;63.63;101851.78;5133255;27;20026;-85
2022/10/19 03:06:36;;;;;;;2.92;2.55;;;;;;;16.75;63.39;101867.22;5130449;28;20110;-85
2022/10/19 03:09:02;;;;;;;4.25;2.72;;;;;;;16.56;63.48;101832.06;5130226;28;20019;-86
2022/10/19 03:11:28;;;;;;;3.15;2.60;;;;;;;16.57;63.66;101841.75;5127038;27;20534;-85
2022/10/19 03:13:53;;;;;;;2.80;2.50;;;;;;;16.51;63.58;101828.31;5102778;28;20031;-85
2022/10/19 03:16:19;;;;;;;3.45;2.47;;;;;;;16.72;63.48;101856.50;5131684;27;20080;-86
2022/10/19 03:18:47;;;;;;;3.20;2.70;;;;;;;16.71;63.46;101852.97;5132013;28;20034;-86
2022/10/19 03:21:13;;;;;;;3.58;2.90;;;;;;;16.56;63.36;101818.88;5130578;28;20533;-85
2022/10/19 03:23:39;;;;;;;4.43;2.47;;;;;;;16.71;63.26;101844.16;5122275;28;20023;-86
2022/10/19 03:26:05;;;;;;;3.78;2.92;;;;;;;16.48;63.04;101804.41;5133303;27;20027;-85
2022/10/19 03:28:31;;;;;;;5.32;2.67;;;;;;;16.69;63.47;101852.88;5117816;27;20492;-85
2022/10/19 03:30:57;;;;;;;2.60;2.40;;;;;;;16.54;63.34;101809.09;5126949;27;20034;-85
2022/10/19 03:33:23;;;;;;;3.50;2.53;;;;;;;16.59;63.18;101826.91;5135028;27;20464;-86
2022/10/19 03:35:49;;;;;;;3.58;2.70;;;;;;;16.68;63.24;101848.47;5134294;27;20019;-86
2022/10/19 03:38:14;;;;;;;3.63;2.85;;;;;;;16.63;63.26;101833.25;5120650;27;20034;-86
2022/10/19 03:40:40;;;;;;;3.25;2.90;;;;;;;16.62;63.43;101844.63;5126610;27;20420;-86
2022/10/19 03:43:06;;;;;;;4.07;2.50;;;;;;;16.21;63.22;101753.94;5134466;27;20110;-86
2022/10/19 03:45:31;;;;;;;2.90;2.60;;;;;;;16.61;63.23;101825.25;5127574;27;20034;-86
2022/10/19 03:47:57;;;;;;;6.25;2.90;;;;;;;16.31;63.31;101772.00;5129405;27;20031;-86
2022/10/19 03:50:22;;;;;;;4.15;2.85;;;;;;;16.23;63.34;101762.81;5135672;27;20023;-86
2022/10/19 03:52:48;;;;;;;4.25;2.90;;;;;;;16.32;63.35;101776.47;5135017;27;20047;-86
2022/10/19 03:55:14;;;;;;;4.32;3.20;;;;;;;16.23;62.94;101755.84;5126041;27;20020;-87
2022/10/19 03:57:40;;;;;;;;;;;;;;;16.64;63.10;101828.03;5134512;27;20030;-87
2022/10/19 04:00:07;;;;;;;3.60;2.88;;;;;;;16.25;63.08;101780.50;5129418;27;20288;-86
2022/10/19 04:02:32;;;;;;;3.65;2.65;;;;;;;16.43;63.00;101795.41;5119417;27;20039;-85
2022/10/19 04:04:58;;;;;;;3.38;2.90;;;;;;;16.63;62.69;101817.41;5122324;27;20027;-86
2022/10/19 04:07:24;;;;;;;3.85;2.85;;;;;;;16.27;62.87;101759.50;5132113;27;20480;-86
2022/10/19 04:09:49;;;;;;;3.80;2.90;;;;;;;16.53;62.87;101800.28;5104504;28;20385;-86
2022/10/19 04:12:15;;;;;;;3.65;2.80;;;;;;;16.28;62.63;101764.84;5127590;27;20172;-87
2022/10/19 04:14:40;;;;;;;3.97;2.78;;;;;;;16.52;62.84;101805.47;5122506;27;20042;-85
2022/10/19 04:17:06;;;;;;;3.30;2.83;;;;;;;16.27;62.85;101762.16;5120895;27;20031;-86
2022/10/19 04:19:32;;;;;;;3.45;2.65;;;;;;;16.24;62.99;101752.38;5129168;27;20464;-86
2022/10/19 04:21:57;;;;;;;4.05;3.00;;;;;;;16.22;62.74;101737.31;5130633;27;20039;-86
2022/10/19 04:24:23;;;;;;;3.42;2.80;;;;;;;16.28;62.76;101759.59;5130802;27;20090;-86
2022/10/19 04:26:51;;;;;;;3.42;2.70;;;;;;;16.49;63.54;101803.59;5126171;27;20038;-86
2022/10/19 04:29:37;;;;;;;4.03;2.88;;;;;;;16.53;62.60;101809.91;5129861;27;20026;-86
2022/10/19 04:32:02;;;;;;;3.28;2.97;;;;;;;16.36;62.81;101780.13;5127637;27;20027;-87
2022/10/19 04:34:28;;;;;;;3.88;2.80;;;;;;;16.37;62.69;101777.56;5107296;27;20029;-87
2022/10/19 04:36:54;;;;;;;4.15;2.70;;;;;;;16.32;62.91;101776.47;5132380;27;20043;-85
2022/10/19 04:39:19;;;;;;;3.63;2.70;;;;;;;16.27;62.78;101765.66;5132742;27;20054;-87
2022/10/19 04:41:45;;;;;;;4.15;2.75;;;;;;;16.36;62.55;101785.38;5127673;27;20030;-86
2022/10/19 04:44:10;;;;;;;3.50;2.50;;;;;;;16.38;62.43;101786.38;5134669;27;20026;-85
2022/10/19 04:46:37;;;;;;;3.88;2.70;;;;;;;16.27;62.31;101763.03;5133196;27;20031;-87
2022/10/19 04:49:04;;;;;;;5.97;2.67;;;;;;;16.46;62.45;101801.69;5125170;27;20023;-86
2022/10/19 04:51:30;;;;;;;3.17;2.70;;;;;;;16.31;62.36;101773.75;5127685;27;20023;-86
2022/10/19 04:53:57;;;;;;;3.88;2.75;;;;;;;16.04;62.91;101740.91;5132409;27;20111;-87
2022/10/19 04:56:27;;;;;;;4.63;2.85;;;;;;;16.18;62.57;101761.72;5129026;27;20039;-84
2022/10/19 04:58:56;;;;;;;4.18;2.95;;;;;;;16.43;62.66;101798.03;5131967;27;20029;-87
2022/10/19 05:01:23;;;;;;;4.13;2.63;;;;;;;16.27;62.87;101784.13;5132158;27;20019;-85
2022/10/19 05:03:56;;;;;;;4.40;2.80;;;;;;;16.34;62.70;101794.97;5124891;27;20023;-86
2022/10/19 05:06:22;;;;;;;3.92;2.75;;;;;;;16.14;62.75;101754.50;5108839;27;20419;-87
2022/10/19 05:08:49;;;;;;;;;;;;;;;16.37;63.02;101801.28;5134801;27;20050;-89
2022/10/19 05:11:15;;;;;;;4.03;3.10;;;;;;;16.20;62.87;101774.13;5127975;27;19912;-86
2022/10/19 05:13:47;;;;;;;3.63;3.00;;;;;;;16.36;62.67;101780.13;5126559;27;20066;-90
2022/10/19 05:16:15;;;;;;;3.63;2.88;;;;;;;16.26;62.40;101777.06;5104286;27;20062;-86
2022/10/19 05:18:41;;;;;;;3.50;2.80;;;;;;;16.47;62.41;101792.09;5121180;27;20034;-86
2022/10/19 05:21:11;;;;;;;4.43;3.15;;;;;;;16.40;62.62;101800.53;5130906;27;20035;-88
2022/10/19 05:23:40;;;;;;;3.20;2.90;;;;;;;16.38;62.39;101796.91;5132391;27;20031;-88
2022/10/19 05:26:11;;;;;;;4.75;2.53;;;;;;;16.21;62.40;101769.75;5128134;27;20026;-88
2022/10/19 05:28:37;;;;;;;3.38;2.90;;;;;;;16.20;62.65;101773.25;5124979;27;20399;-87
2022/10/19 05:31:10;;;;;;;3.47;2.63;;;;;;;16.31;62.32;101776.38;5107509;27;20031;-87
2022/10/19 05:33:36;;;;;;;3.65;2.97;;;;;;;16.39;62.63;101788.19;5124873;27;20085;-88
2022/10/19 05:36:09;;;;;;;;;;;;;;;16.40;62.40;101797.88;5119098;27;20087;-87
2022/10/19 05:38:35;;;;;;;5.22;3.22;;;;;;;16.06;62.49;101741.88;5125377;27;19915;-87
2022/10/19 05:41:00;;;;;;;3.30;3.00;;;;;;;16.27;62.27;101775.31;5101091;28;20453;-89
2022/10/19 05:43:26;;;;;;;4.13;2.83;;;;;;;16.08;62.54;101750.72;5124235;27;20484;-89
2022/10/19 05:45:51;;;;;;;3.40;2.90;;;;;;;16.08;62.44;101736.66;5126182;27;20023;-84
2022/10/19 05:48:17;;;;;;;5.03;3.20;;;;;;;16.06;62.11;101752.41;5130021;27;20083;-87
2022/10/19 05:50:54;;;;;;;3.25;2.70;;;;;;;16.10;62.54;101752.53;5131819;27;20027;-87
2022/10/19 05:53:20;;;;;;;5.72;3.28;;;;;;;15.74;62.52;101699.91;5127904;27;20050;-87
2022/10/19 05:55:51;;;;;;;4.20;2.78;;;;;;;16.34;62.34;101808.13;5129712;27;20019;-89
2022/10/19 05:58:16;;;;;;;3.95;3.20;;;;;;;15.77;62.51;101707.94;5130799;27;20114;-87
2022/10/19 06:00:42;;;;;;;4.53;2.80;;;;;;;16.08;62.59;101758.63;5122408;27;20564;-88
2022/10/19 06:03:08;;;;;;;4.13;3.10;;;;;;;16.23;62.68;101798.03;5131296;27;20030;-89
2022/10/19 06:05:37;;;;;;;5.18;3.50;;;;;;;16.08;62.46;101777.06;5119888;27;20670;-88
2022/10/19 06:08:03;;;;;;;3.83;3.00;;;;;;;16.02;62.76;101768.91;5115615;27;20034;-88
2022/10/19 06:10:28;;;;;;;3.35;3.05;;;;;;;15.97;62.53;101756.34;5120199;27;20023;-86
2022/10/19 06:12:55;;;;;;;3.10;2.80;;;;;;;16.36;62.14;101827.56;5124069;27;20034;-88
2022/10/19 06:15:22;;;;;;;3.50;2.97;;;;;;;16.08;62.72;101779.72;5119897;27;20509;-86
2022/10/19 06:17:47;;;;;;;3.78;3.08;;;;;;;15.79;62.85;101743.16;5126519;27;20026;-85
2022/10/19 06:20:13;;;;;;;3.35;2.70;;;;;;;16.29;62.57;101824.63;5124996;27;20023;-86
2022/10/19 06:22:39;;;;;;;3.60;2.90;;;;;;;16.14;62.61;101791.41;5127085;27;20576;-87
2022/10/19 06:25:05;;;;;;;3.60;2.80;;;;;;;16.32;62.62;101820.34;5124994;27;20556;-87
2022/10/19 06:27:30;;;;;;;3.65;2.70;;;;;;;15.95;62.45;101747.47;5127567;27;20027;-86
2022/10/19 06:29:56;;;;;;;3.70;3.13;;;;;;;15.85;62.57;101736.50;5124722;27;20142;-85
2022/10/19 06:32:22;;;;;;;4.80;3.10;;;;;;;16.06;62.56;101765.59;5129644;27;20598;-84
2022/10/19 06:34:48;;;;;;;4.75;2.85;;;;;;;16.28;62.59;101803.50;5132907;27;20468;-86
2022/10/19 06:37:15;;;;;;;5.15;2.92;;;;;;;16.18;62.93;101794.25;5123775;27;20028;-84
2022/10/19 06:39:40;;;;;;;2.90;2.50;;;;;;;16.06;62.92;101772.56;5130038;27;20019;-85
2022/10/19 06:42:08;;;;;;;4.97;3.15;;;;;;;16.23;62.77;101789.19;5125166;27;20121;-84
2022/10/19 06:44:33;;;;;;;4.25;3.20;;;;;;;16.21;62.61;101789.13;5122278;27;20027;-85
2022/10/19 06:46:59;;;;;;;4.20;2.80;;;;;;;16.33;62.53;101806.34;5130796;27;20054;-84
2022/10/19 06:49:25;;;;;;;4.95;3.10;;;;;;;16.18;62.92;101778.44;5110221;27;20114;-85
2022/10/19 06:51:50;;;;;;;5.30;3.17;;;;;;;16.27;62.86;101792.03;5126889;27;20043;-87
2022/10/19 06:54:16;;;;;;;6.53;2.97;;;;;;;16.10;62.98;101771.00;5127754;27;20034;-84
2022/10/19 06:56:42;;;;;;;4.65;3.05;;;;;;;16.24;62.71;101780.47;5131244;27;20068;-84
2022/10/19 06:59:11;;;;;;;4.18;2.97;;;;;;;16.06;62.84;101752.41;5129196;27;20476;-86
2022/10/19 07:01:36;;;;;;;3.22;2.92;;;;;;;15.84;62.95;101717.97;5129375;27;20526;-84
2022/10/19 07:04:02;;;;;;;4.38;2.90;;;;;;;16.23;62.90;101776.00;5127154;27;20031;-84
2022/10/19 07:06:28;;;;;;;4.20;2.78;;;;;;;16.06;62.90;101747.16;5126272;27;20027;-84
2022/10/19 07:08:53;;;;;;;4.43;3.08;;;;;;;16.33;62.87;101793.16;5127550;28;20030;-84
2022/10/19 07:11:21;;;;;;;4.53;3.10;;;;;;;16.35;62.81;101796.78;5131309;27;20023;-83
2022/10/19 07:13:46;;;;;;;5.82;2.85;;;;;;;16.04;62.75;101730.38;5118662;28;20028;-85
2022/10/19 07:16:14;;;;;;;5.47;2.88;;;;;;;16.31;62.90;101787.81;5119722;27;20027;-84
2022/10/19 07:18:40;;;;;;;5.32;2.78;;;;;;;16.16;63.11;101751.09;5129616;28;20038;-84
2022/10/19 07:21:08;;;;;;;3.40;2.90;;;;;;;16.05;63.09;101745.31;5124560;27;20023;-86
2022/10/19 07:23:35;;;;;;;3.63;2.70;;;;;;;15.90;62.98;101715.63;5131737;27;20635;-85
2022/10/19 07:26:16;;;;;;;2.90;2.65;;;;;;;16.29;63.37;101769.28;5124463;27;20420;-84
2022/10/19 07:28:44;;;;;;;3.42;3.05;;;;;;;16.32;63.03;101776.47;5130145;28;20109;-85
2022/10/19 07:31:12;;;;;;;3.20;2.90;;;;;;;16.31;63.04;101771.09;5124549;27;20051;-84
2022/10/19 07:33:38;;;;;;;3.75;2.80;;;;;;;16.27;63.25;101764.78;5125310;27;20407;-84
2022/10/19 07:36:07;;;;;;;3.90;3.33;;;;;;;16.21;62.98;101744.34;5126220;27;20502;-83
2022/10/19 07:38:33;;;;;;;4.18;2.85;;;;;;;16.31;63.21;101758.81;5130644;28;20065;-84
2022/10/19 07:41:07;;;;;;;4.65;2.72;;;;;;;16.31;63.14;101758.81;5134391;28;20054;-84
2022/10/19 07:43:33;;;;;;;3.53;2.88;;;;;;;16.30;63.24;101757.03;5124014;27;20020;-85
2022/10/19 07:46:00;;;;;;;4.35;3.13;;;;;;;15.99;63.45;101712.53;5127302;27;20106;-87
2022/10/19 07:48:26;;;;;;;7.22;2.80;;;;;;;16.15;63.59;101743.13;5129331;27;21771;-83
2022/10/19 07:50:51;;;;;;;4.10;3.20;;;;;;;16.14;63.58;101741.31;5129703;27;20110;-84
2022/10/19 07:53:17;;;;;;;4.20;3.15;;;;;;;15.85;63.36;101685.50;5130135;27;20046;-84
2022/10/19 07:55:43;;;;;;;5.63;3.03;;;;;;;16.16;63.51;101742.31;5121092;28;20035;-84
2022/10/19 07:58:08;;;;;;;5.03;3.35;;;;;;;16.08;63.58;101724.38;5128553;28;20047;-84
2022/10/19 08:00:34;;;;;;;8.48;3.28;;;;;;;16.06;63.85;101704.06;5119019;28;20087;-84
2022/10/19 08:02:59;;;;;;;7.00;3.80;;;;;;;16.12;63.51;101714.88;5116132;28;20057;-83
2022/10/19 08:05:25;;;;;;;14.20;4.15;;;;;;;16.15;63.48;101714.13;5129472;28;20024;-82
2022/10/19 08:07:50;;;;;;;11.80;3.85;;;;;;;16.00;63.64;101694.16;5120788;27;20020;-85
2022/10/19 08:10:16;;;;;;;10.68;4.25;;;;;;;16.18;63.60;101724.81;5127596;28;20115;-84
2022/10/19 08:12:42;;;;;;;6.53;3.97;;;;;;;16.19;63.64;101714.38;5125095;27;20034;-85
2022/10/19 08:15:08;;;;;;;10.90;4.55;;;;;;;16.25;63.64;101725.16;5129283;27;20031;-85
2022/10/19 08:17:35;;;;;;;8.18;4.40;;;;;;;16.15;63.78;101724.66;5128274;27;20528;-85
2022/10/19 08:20:02;;;;;;;9.43;4.50;;;;;;;16.20;63.74;101718.78;5124280;27;20039;-85
2022/10/19 08:22:27;;;;;;;10.40;4.60;;;;;;;16.05;63.79;101702.28;5129597;27;20027;-85
2022/10/19 08:24:53;;;;;;;9.07;4.45;;;;;;;15.81;63.63;101652.88;5120275;27;20026;-84
2022/10/19 08:27:19;;;;;;;10.25;4.25;;;;;;;16.15;63.62;101712.41;5116474;27;20043;-84
2022/10/19 08:29:44;;;;;;;10.50;4.25;;;;;;;16.21;63.60;101707.44;5124801;27;20058;-83
2022/10/19 08:32:10;;;;;;;8.00;3.92;;;;;;;16.07;63.26;101682.16;5125406;27;20055;-83
2022/10/19 08:34:35;;;;;;;10.98;4.78;;;;;;;16.20;64.03;101710.88;5126550;27;20042;-84
2022/10/19 08:37:05;;;;;;;11.82;5.03;;;;;;;16.03;63.71;101675.84;5127354;27;20023;-83
2022/10/19 08:39:31;;;;;;;12.82;5.03;;;;;;;16.10;63.93;101687.56;5130166;27;20484;-86
2022/10/19 08:42:05;;;;;;;12.77;5.05;;;;;;;16.15;64.04;101699.25;5124810;27;20024;-84
2022/10/19 08:44:56;;;;;;;13.20;5.85;;;;;;;16.21;63.88;101702.16;5112697;27;20042;-83
2022/10/19 08:47:34;;;;;;;11.65;5.38;;;;;;;15.94;63.90;101650.78;5127782;27;20108;-84
2022/10/19 08:50:00;;;;;;;13.93;5.60;;;;;;;15.87;64.01;101640.00;5129624;27;20039;-84
2022/10/19 08:52:31;;;;;;;13.63;5.63;;;;;;;15.99;63.65;101646.66;5128885;27;20054;-84
2022/10/19 08:55:07;;;;;;;12.23;5.60;;;;;;;16.19;63.98;101684.44;5127742;27;20050;-82
2022/10/19 08:57:52;;;;;;;11.77;5.20;;;;;;;16.06;64.00;101654.94;5127659;27;20031;-84
2022/10/19 09:00:39;;;;;;;10.77;5.50;;;;;;;16.16;64.13;101672.03;5127931;27;20296;-84
2022/10/19 09:03:26;;;;;;;11.98;4.75;;;;;;;16.12;64.22;101672.72;5133513;27;20038;-84
2022/10/19 09:05:54;;;;;;;;;;;;;;;16.10;64.25;101661.22;5130760;27;20114;-84
2022/10/19 09:08:20;;;;;;;9.93;5.38;;;;;;;15.96;64.58;101642.16;5133045;27;19919;-84
2022/10/19 09:10:49;;;;;;;10.32;5.30;;;;;;;16.04;64.30;101646.06;5129505;27;20545;-84
2022/10/19 09:13:24;;;;;;;11.23;5.00;;;;;;;16.13;64.63;101658.75;5123748;27;20669;-84
2022/10/19 09:15:51;;;;;;;14.70;5.40;;;;;;;16.16;64.17;101663.25;5126839;27;20034;-85
2022/10/19 09:18:28;;;;;;;9.45;5.10;;;;;;;16.03;64.31;101638.06;5121888;27;20085;-84
2022/10/19 09:21:15;;;;;;;10.98;5.22;;;;;;;16.26;64.23;101657.56;5120258;27;20072;-83
2022/10/19 09:24:05;;;;;;;10.02;4.50;;;;;;;16.20;64.51;101655.53;5111131;27;20038;-84
2022/10/19 09:26:58;;;;;;;9.15;4.43;;;;;;;16.21;64.59;101648.53;5123896;27;20111;-84
2022/10/19 09:29:49;;;;;;;9.63;4.75;;;;;;;16.21;64.64;101646.81;5138694;27;20120;-86
2022/10/19 09:32:22;;;;;;;11.85;4.53;;;;;;;16.11;65.03;101635.75;5130077;27;20082;-85
2022/10/19 09:34:52;;;;;;;9.30;4.88;;;;;;;16.12;65.07;101637.59;5102861;27;20404;-85
2022/10/19 09:37:19;;;;;;;10.90;4.80;;;;;;;16.13;64.87;101631.47;5126498;27;20034;-85
2022/10/19 09:39:44;;;;;;;9.52;5.00;;;;;;;16.14;64.93;101630.66;5112142;27;20030;-84
2022/10/19 09:42:23;;;;;;;11.52;5.15;;;;;;;16.15;65.32;101633.34;5126341;27;20024;-84
2022/10/19 09:44:50;;;;;;;11.07;4.82;;;;;;;16.20;65.18;101620.38;5125420;27;20059;-85
2022/10/19 09:47:19;;;;;;;12.98;5.00;;;;;;;16.16;65.08;101610.53;5132250;27;20026;-85
2022/10/19 09:49:47;;;;;;;10.23;4.90;;;;;;;16.18;65.26;101614.16;5133272;27;20023;-85
2022/10/19 09:52:30;;;;;;;10.65;5.00;;;;;;;16.18;65.19;101612.41;5131824;27;20045;-84
2022/10/19 09:55:28;;;;;;;11.77;4.90;;;;;;;16.19;65.09;101603.69;5122339;27;20038;-85
2022/10/19 09:58:02;;;;;;;10.32;4.82;;;;;;;16.14;65.20;101562.13;5116951;27;20035;-84
2022/10/19 10:00:37;;;;;;;10.52;4.90;;;;;;;15.93;65.13;101539.25;5124784;27;20015;-86
2022/10/19 10:03:04;;;;;;;9.50;4.47;;;;;;;16.35;65.13;101585.91;5131699;27;20026;-85
2022/10/19 10:05:39;;;;;;;12.63;4.50;;;;;;;16.19;65.11;101573.75;5133006;27;20030;-85
2022/10/19 10:08:13;;;;;;;10.50;4.53;;;;;;;15.97;65.44;101530.66;5132576;27;20091;-85
2022/10/19 10:10:44;;;;;;;8.90;4.88;;;;;;;16.07;65.46;101539.91;5131642;27;20048;-85
2022/10/19 10:13:20;;;;;;;10.63;4.63;;;;;;;16.30;65.19;101567.25;5129069;27;20030;-85
2022/10/19 10:15:48;;;;;;;10.18;4.57;;;;;;;16.27;65.28;101562.72;5129296;27;20038;-85
2022/10/19 10:18:16;;;;;;;12.07;5.05;;;;;;;16.13;65.38;101537.53;5129243;27;20098;-84
2022/10/19 10:21:01;;;;;;;9.60;4.80;;;;;;;16.31;65.50;101554.97;5130783;27;20019;-83
2022/10/19 10:23:31;;;;;;;9.73;4.50;;;;;;;16.26;65.31;101539.84;5126065;27;20031;-83
2022/10/19 10:25:58;;;;;;;7.82;4.38;;;;;;;16.23;65.53;101550.28;5126138;27;20492;-84
2022/10/19 10:28:26;;;;;;;11.18;4.68;;;;;;;16.29;64.97;101547.88;5127983;27;20031;-85
2022/10/19 10:30:55;;;;;;;8.63;4.57;;;;;;;16.28;65.37;101527.63;5131245;27;20037;-84
2022/10/19 10:33:25;;;;;;;7.45;4.25;;;;;;;16.16;65.28;101513.03;5122197;27;20034;-84
2022/10/19 10:35:54;;;;;;;7.80;4.57;;;;;;;16.34;65.38;101526.09;5125894;27;20510;-83
2022/10/19 10:38:31;;;;;;;11.70;4.40;;;;;;;16.30;65.54;101527.72;5132840;27;20066;-84
2022/10/19 10:41:02;;;;;;;9.15;4.50;;;;;;;16.24;65.32;101504.63;5132940;27;20481;-84
2022/10/19 10:43:31;;;;;;;8.55;4.10;;;;;;;16.23;65.29;101502.84;5131926;27;20378;-84
2022/10/19 10:46:20;;;;;;;7.65;3.97;;;;;;;16.36;65.41;101533.25;5122980;27;20031;-84
2022/10/19 10:49:07;;;;;;;11.55;4.75;;;;;;;16.38;65.24;101528.03;5131699;27;20120;-85
2022/10/19 10:51:42;;;;;;;6.43;4.03;;;;;;;16.37;65.31;101513.94;5131489;27;20044;-86
2022/10/19 10:54:21;;;;;;;9.63;4.30;;;;;;;16.31;65.47;101516.31;5093431;28;20292;-85
2022/10/19 10:57:17;;;;;;;7.82;4.47;;;;;;;16.40;65.44;101527.28;5100623;27;20123;-85
2022/10/19 11:00:11;;;;;;;8.43;4.38;;;;;;;16.23;65.15;101491.38;5129235;27;20135;-85
2022/10/19 11:03:00;;;;;;;8.32;4.15;;;;;;;16.43;65.29;101519.47;5118695;27;20032;-85
2022/10/19 11:05:32;;;;;;;7.50;4.35;;;;;;;16.36;65.34;101511.25;5130695;27;20034;-85
2022/10/19 11:08:24;;;;;;;5.85;3.58;;;;;;;16.38;65.67;101509.56;5130835;27;20541;-85
2022/10/19 11:11:10;;;;;;;9.07;4.40;;;;;;;16.38;65.70;101515.75;5130957;28;20110;-85
2022/10/19 11:13:51;;;;;;;7.22;3.67;;;;;;;16.29;65.87;101486.34;5116401;28;20027;-85
2022/10/19 11:16:21;;;;;;;8.05;4.18;;;;;;;16.35;65.34;101493.63;5120532;28;20025;-84
2022/10/19 11:18:49;;;;;;;8.02;3.85;;;;;;;16.34;65.65;101502.38;5131076;28;20030;-85
2022/10/19 11:21:15;;;;;;;8.30;4.38;;;;;;;16.32;65.70;101497.06;5124964;28;20075;-84
2022/10/19 11:23:53;;;;;;;7.70;3.85;;;;;;;16.32;66.41;101496.13;5132654;28;20438;-85
2022/10/19 11:26:56;;;;;;;8.77;3.72;;;;;;;16.35;65.98;101496.28;5132477;27;20027;-85
2022/10/19 11:29:49;;;;;;;6.68;3.75;;;;;;;16.21;66.01;101472.88;5129017;28;20035;-85
2022/10/19 11:32:30;;;;;;;6.20;3.72;;;;;;;16.30;65.91;101482.91;5124733;28;20138;-85
2022/10/19 11:35:14;;;;;;;5.75;3.50;;;;;;;16.39;65.91;101487.66;5125552;28;20019;-84
2022/10/19 11:37:58;;;;;;;7.38;4.10;;;;;;;16.40;65.88;101486.81;5130712;28;20100;-85
2022/10/19 11:40:30;;;;;;;8.30;3.97;;;;;;;16.44;65.82;101494.00;5132121;27;20015;-85
2022/10/19 11:43:03;;;;;;;6.65;3.30;;;;;;;16.51;65.78;101489.88;5131646;28;20131;-85